sensor_id;sensor_type;location;lat;lon;timestamp;pressure;altitude;pressure_sealevel;temperature;humidity
48390;BME280;34643;47.964;7.982;2023-07-08T00:03:24;96754.66;;;22.23;49.69
48390;BME280;34643;47.964;7.982;2023-07-08T00:08:25;96746.78;;;22.23;49.15
48390;BME280;34643;47.964;7.982;2023-07-08T00:13:25;96742.31;;;22.24;49.64
48390;BME280;34643;47.964;7.982;2023-07-08T00:18:25;96733.63;;;22.23;49.60
48390;BME280;34643;47.964;7.982;2023-07-08T00:23:25;96736.25;;;22.23;49.66
48390;BME280;34643;47.964;7.982;2023-07-08T00:28:26;96727.53;;;22.23;49.42
48390;BME280;34643;47.964;7.982;2023-07-08T00:33:27;96726.56;;;22.24;49.29
48390;BME280;34643;47.964;7.982;2023-07-08T00:38:28;96726.56;;;22.24;49.56
48390;BME280;34643;47.964;7.982;2023-07-08T00:43:45;96709.13;;;22.23;49.52
48390;BME280;34643;47.964;7.982;2023-07-08T00:48:46;96720.47;;;22.23;49.43
48390;BME280;34643;47.964;7.982;2023-07-08T00:53:48;96714.41;;;22.23;49.41
48390;BME280;34643;47.964;7.982;2023-07-08T00:58:50;96716.03;;;22.24;49.54
48390;BME280;34643;47.964;7.982;2023-07-08T01:04:02;96717.72;;;22.25;49.37
48390;BME280;34643;47.964;7.982;2023-07-08T01:09:04;96711.59;;;22.24;49.43
48390;BME280;34643;47.964;7.982;2023-07-08T01:14:05;96711.47;;;22.26;49.51
48390;BME280;34643;47.964;7.982;2023-07-08T01:19:09;96722.97;;;22.25;49.37
48390;BME280;34643;47.964;7.982;2023-07-08T01:24:14;96726.41;;;22.25;49.44
48390;BME280;34643;47.964;7.982;2023-07-08T01:29:14;96736.94;;;22.25;49.23
48390;BME280;34643;47.964;7.982;2023-07-08T01:34:15;96749.25;;;22.25;49.16
48390;BME280;34643;47.964;7.982;2023-07-08T01:39:17;96748.25;;;22.26;49.30
48390;BME280;34643;47.964;7.982;2023-07-08T01:44:19;96749.25;;;22.25;49.45
48390;BME280;34643;47.964;7.982;2023-07-08T01:49:19;96737.75;;;22.26;49.01
48390;BME280;34643;47.964;7.982;2023-07-08T01:54:20;96751.88;;;22.25;49.43
48390;BME280;34643;47.964;7.982;2023-07-08T01:59:20;96752.59;;;22.27;49.46
48390;BME280;34643;47.964;7.982;2023-07-08T02:04:21;96748.25;;;22.26;49.54
48390;BME280;34643;47.964;7.982;2023-07-08T02:09:22;96750.91;;;22.26;49.27
48390;BME280;34643;47.964;7.982;2023-07-08T02:14:22;96744.00;;;22.25;49.20
48390;BME280;34643;47.964;7.982;2023-07-08T02:19:23;96733.47;;;22.25;49.45
48390;BME280;34643;47.964;7.982;2023-07-08T02:24:25;96729.03;;;22.25;49.16
48390;BME280;34643;47.964;7.982;2023-07-08T02:29:25;96739.44;;;22.27;49.36
48390;BME280;34643;47.964;7.982;2023-07-08T02:34:26;96760.47;;;22.27;49.41
48390;BME280;34643;47.964;7.982;2023-07-08T02:39:26;96773.63;;;22.27;49.35
48390;BME280;34643;47.964;7.982;2023-07-08T02:44:27;96803.47;;;22.26;49.23
48390;BME280;34643;47.964;7.982;2023-07-08T02:49:27;96809.59;;;22.26;49.21
48390;BME280;34643;47.964;7.982;2023-07-08T02:54:28;96793.81;;;22.26;49.51
48390;BME280;34643;47.964;7.982;2023-07-08T02:59:28;96807.81;;;22.27;49.42
48390;BME280;34643;47.964;7.982;2023-07-08T03:04:29;96827.84;;;22.28;49.62
48390;BME280;34643;47.964;7.982;2023-07-08T03:09:30;96833.09;;;22.28;49.26
48390;BME280;34643;47.964;7.982;2023-07-08T03:14:32;96838.38;;;22.28;49.33
48390;BME280;34643;47.964;7.982;2023-07-08T03:19:34;96843.63;;;22.28;49.41
48390;BME280;34643;47.964;7.982;2023-07-08T03:24:35;96856.78;;;22.28;49.50
48390;BME280;34643;47.964;7.982;2023-07-08T03:29:37;96856.78;;;22.28;49.36
48390;BME280;34643;47.964;7.982;2023-07-08T03:34:38;96873.41;;;22.28;49.21
48390;BME280;34643;47.964;7.982;2023-07-08T03:39:38;96876.03;;;22.28;49.45
48390;BME280;34643;47.964;7.982;2023-07-08T03:44:39;96890.81;;;22.29;49.46
48390;BME280;34643;47.964;7.982;2023-07-08T03:49:39;96903.97;;;22.29;49.32
48390;BME280;34643;47.964;7.982;2023-07-08T03:54:39;96929.44;;;22.29;49.68
48390;BME280;34643;47.964;7.982;2023-07-08T03:59:40;96946.88;;;22.30;49.67
48390;BME280;34643;47.964;7.982;2023-07-08T04:04:40;96959.19;;;22.29;49.73
48390;BME280;34643;47.964;7.982;2023-07-08T04:09:41;96974.13;;;22.29;49.41
48390;BME280;34643;47.964;7.982;2023-07-08T04:14:44;96982.84;;;22.29;49.72
48390;BME280;34643;47.964;7.982;2023-07-08T04:19:44;97015.25;;;22.30;49.86
48390;BME280;34643;47.964;7.982;2023-07-08T04:24:45;97023.50;;;22.25;49.30
48390;BME280;34643;47.964;7.982;2023-07-08T04:29:45;97002.19;;;22.18;50.04
48390;BME280;34643;47.964;7.982;2023-07-08T04:34:45;97011.19;;;22.16;51.17
48390;BME280;34643;47.964;7.982;2023-07-08T04:39:46;97029.00;;;21.83;52.73
48390;BME280;34643;47.964;7.982;2023-07-08T04:44:46;97048.78;;;21.77;53.13
48390;BME280;34643;47.964;7.982;2023-07-08T04:49:49;97041.72;;;21.78;53.43
48390;BME280;34643;47.964;7.982;2023-07-08T04:54:50;97045.06;;;21.80;53.41
48390;BME280;34643;47.964;7.982;2023-07-08T04:59:50;97055.28;;;21.73;54.05
48390;BME280;34643;47.964;7.982;2023-07-08T05:04:50;97058.59;;;21.85;53.07
48390;BME280;34643;47.964;7.982;2023-07-08T05:09:50;97071.91;;;21.83;53.22
48390;BME280;34643;47.964;7.982;2023-07-08T05:14:51;97071.47;;;21.78;52.95
48390;BME280;34643;47.964;7.982;2023-07-08T05:19:51;97056.34;;;21.71;53.63
48390;BME280;34643;47.964;7.982;2023-07-08T05:24:52;97021.22;;;21.62;53.98
48390;BME280;34643;47.964;7.982;2023-07-08T05:29:55;96982.22;;;21.48;54.48
48390;BME280;34643;47.964;7.982;2023-07-08T05:34:55;96982.25;;;21.57;54.22
48390;BME280;34643;47.964;7.982;2023-07-08T05:39:55;96979.59;;;21.48;54.07
48390;BME280;34643;47.964;7.982;2023-07-08T05:44:56;96971.06;;;21.55;54.17
48390;BME280;34643;47.964;7.982;2023-07-08T05:49:56;96973.13;;;21.61;53.73
48390;BME280;34643;47.964;7.982;2023-07-08T05:54:57;96973.94;;;21.62;53.86
48390;BME280;34643;47.964;7.982;2023-07-08T05:59:57;96964.09;;;21.44;53.29
48390;BME280;34643;47.964;7.982;2023-07-08T06:04:57;96981.63;;;21.34;53.61
48390;BME280;34643;47.964;7.982;2023-07-08T06:09:58;97004.34;;;21.55;55.01
48390;BME280;34643;47.964;7.982;2023-07-08T06:14:59;96968.28;;;21.57;54.19
48390;BME280;34643;47.964;7.982;2023-07-08T06:19:59;96939.41;;;21.57;53.84
48390;BME280;34643;47.964;7.982;2023-07-08T06:24:59;96951.13;;;21.53;54.28
48390;BME280;34643;47.964;7.982;2023-07-08T06:30:00;96942.84;;;21.57;53.84
48390;BME280;34643;47.964;7.982;2023-07-08T06:35:00;96922.66;;;21.58;53.66
48390;BME280;34643;47.964;7.982;2023-07-08T06:40:00;96906.38;;;21.64;53.25
48390;BME280;34643;47.964;7.982;2023-07-08T06:45:01;96892.13;;;21.67;52.33
48390;BME280;34643;47.964;7.982;2023-07-08T06:50:02;96870.56;;;21.63;50.94
48390;BME280;34643;47.964;7.982;2023-07-08T06:55:05;96866.97;;;21.64;51.17
48390;BME280;34643;47.964;7.982;2023-07-08T07:00:09;96873.88;;;21.65;51.77
48390;BME280;34643;47.964;7.982;2023-07-08T07:05:10;96875.81;;;21.53;50.93
48390;BME280;34643;47.964;7.982;2023-07-08T07:10:10;96875.38;;;21.58;52.23
48390;BME280;34643;47.964;7.982;2023-07-08T07:15:11;96887.56;;;21.59;52.62
48390;BME280;34643;47.964;7.982;2023-07-08T07:20:11;96894.88;;;21.65;53.03
48390;BME280;34643;47.964;7.982;2023-07-08T07:25:12;96910.91;;;21.72;51.62
48390;BME280;34643;47.964;7.982;2023-07-08T07:30:12;96925.03;;;21.80;51.24
48390;BME280;34643;47.964;7.982;2023-07-08T07:35:15;96939.41;;;21.76;53.08
48390;BME280;34643;47.964;7.982;2023-07-08T07:40:15;96952.13;;;21.71;53.48
48390;BME280;34643;47.964;7.982;2023-07-08T07:45:16;96954.03;;;21.89;52.89
48390;BME280;34643;47.964;7.982;2023-07-08T07:50:16;96960.72;;;21.93;52.49
48390;BME280;34643;47.964;7.982;2023-07-08T07:55:16;96967.59;;;21.94;52.45
48390;BME280;34643;47.964;7.982;2023-07-08T08:00:17;96970.94;;;21.96;52.13
48390;BME280;34643;47.964;7.982;2023-07-08T08:05:18;96980.47;;;21.97;52.32
48390;BME280;34643;47.964;7.982;2023-07-08T08:10:19;96982.97;;;21.98;52.14
48390;BME280;34643;47.964;7.982;2023-07-08T08:15:20;96982.84;;;22.00;52.39
48390;BME280;34643;47.964;7.982;2023-07-08T08:20:21;96994.16;;;22.00;52.37
48390;BME280;34643;47.964;7.982;2023-07-08T08:25:22;96993.09;;;22.03;52.34
48390;BME280;34643;47.964;7.982;2023-07-08T08:30:23;96993.63;;;22.07;51.98
48390;BME280;34643;47.964;7.982;2023-07-08T08:35:23;97007.44;;;22.18;51.97
48390;BME280;34643;47.964;7.982;2023-07-08T08:40:23;97001.38;;;22.18;51.99
48390;BME280;34643;47.964;7.982;2023-07-08T08:45:24;96998.06;;;22.16;52.06
48390;BME280;34643;47.964;7.982;2023-07-08T08:50:30;97002.88;;;22.20;52.09
48390;BME280;34643;47.964;7.982;2023-07-08T08:55:31;96993.47;;;22.18;52.18
48390;BME280;34643;47.964;7.982;2023-07-08T09:00:44;96994.03;;;22.21;52.23
48390;BME280;34643;47.964;7.982;2023-07-08T09:05:45;96992.09;;;22.24;52.12
48390;BME280;34643;47.964;7.982;2023-07-08T09:10:50;96988.63;;;22.23;52.07
48390;BME280;34643;47.964;7.982;2023-07-08T09:15:56;96980.06;;;22.21;52.65
48390;BME280;34643;47.964;7.982;2023-07-08T09:20:58;96986.16;;;22.21;52.29
48390;BME280;34643;47.964;7.982;2023-07-08T09:26:11;96995.72;;;22.23;52.50
48390;BME280;34643;47.964;7.982;2023-07-08T09:31:31;96988.78;;;22.21;52.22
48390;BME280;34643;47.964;7.982;2023-07-08T09:36:32;96990.44;;;22.23;52.06
48390;BME280;34643;47.964;7.982;2023-07-08T09:41:33;96986.97;;;22.22;52.28
48390;BME280;34643;47.964;7.982;2023-07-08T09:46:37;96988.63;;;22.23;51.96
48390;BME280;34643;47.964;7.982;2023-07-08T09:51:37;96983.25;;;22.25;52.06
48390;BME280;34643;47.964;7.982;2023-07-08T09:56:41;96981.44;;;22.25;51.94
48390;BME280;34643;47.964;7.982;2023-07-08T10:01:43;96979.63;;;22.26;51.98
48390;BME280;34643;47.964;7.982;2023-07-08T10:06:44;96982.25;;;22.26;51.92
48390;BME280;34643;47.964;7.982;2023-07-08T10:11:51;96985.59;;;22.28;51.79
48390;BME280;34643;47.964;7.982;2023-07-08T10:16:52;96982.16;;;22.27;51.77
48390;BME280;34643;47.964;7.982;2023-07-08T10:32:19;96974.81;;;22.31;51.88
48390;BME280;34643;47.964;7.982;2023-07-08T11:03:30;96972.59;;;22.36;51.88
48390;BME280;34643;47.964;7.982;2023-07-08T11:08:38;96979.53;;;22.37;51.85
48390;BME280;34643;47.964;7.982;2023-07-08T11:13:40;96975.91;;;22.38;51.96
48390;BME280;34643;47.964;7.982;2023-07-08T11:23:54;96980.06;;;22.40;51.84
48390;BME280;34643;47.964;7.982;2023-07-08T11:28:57;96970.38;;;22.41;52.03
48390;BME280;34643;47.964;7.982;2023-07-08T11:33:59;96977.31;;;22.42;51.89
48390;BME280;34643;47.964;7.982;2023-07-08T11:39:00;96976.47;;;22.42;52.09
48390;BME280;34643;47.964;7.982;2023-07-08T11:44:04;96971.88;;;22.44;52.12
48390;BME280;34643;47.964;7.982;2023-07-08T11:49:12;96960.53;;;22.43;51.88
48390;BME280;34643;47.964;7.982;2023-07-08T11:54:13;96960.41;;;22.45;52.12
48390;BME280;34643;47.964;7.982;2023-07-08T11:59:16;96959.59;;;22.44;51.91
48390;BME280;34643;47.964;7.982;2023-07-08T12:04:23;96960.25;;;22.46;52.20
48390;BME280;34643;47.964;7.982;2023-07-08T12:09:28;96959.28;;;22.47;51.96
48390;BME280;34643;47.964;7.982;2023-07-08T12:14:30;96959.28;;;22.47;51.97
48390;BME280;34643;47.964;7.982;2023-07-08T12:19:31;96963.56;;;22.48;52.02
48390;BME280;34643;47.964;7.982;2023-07-08T12:24:32;96957.38;;;22.49;52.45
48390;BME280;34643;47.964;7.982;2023-07-08T12:29:32;96955.41;;;22.51;52.15
48390;BME280;34643;47.964;7.982;2023-07-08T12:34:32;96937.97;;;22.50;52.30
48390;BME280;34643;47.964;7.982;2023-07-08T12:39:33;96954.41;;;22.52;51.99
48390;BME280;34643;47.964;7.982;2023-07-08T12:44:35;96936.00;;;22.52;52.10
48390;BME280;34643;47.964;7.982;2023-07-08T12:49:37;96940.31;;;22.53;52.31
48390;BME280;34643;47.964;7.982;2023-07-08T12:54:38;96953.47;;;22.53;52.23
48390;BME280;34643;47.964;7.982;2023-07-08T12:59:38;96939.31;;;22.54;52.30
48390;BME280;34643;47.964;7.982;2023-07-08T13:04:40;96940.19;;;22.55;52.48
48390;BME280;34643;47.964;7.982;2023-07-08T13:09:44;96936.69;;;22.54;52.32
48390;BME280;34643;47.964;7.982;2023-07-08T13:14:46;96933.91;;;22.56;52.12
48390;BME280;34643;47.964;7.982;2023-07-08T13:19:46;96932.16;;;22.56;52.00
48390;BME280;34643;47.964;7.982;2023-07-08T13:24:47;96934.78;;;22.56;52.36
48390;BME280;34643;47.964;7.982;2023-07-08T13:29:48;96930.34;;;22.57;52.18
48390;BME280;34643;47.964;7.982;2023-07-08T13:34:50;96928.53;;;22.57;52.02
48390;BME280;34643;47.964;7.982;2023-07-08T13:39:51;96926.75;;;22.58;52.19
48390;BME280;34643;47.964;7.982;2023-07-08T13:44:53;96931.84;;;22.59;52.39
48390;BME280;34643;47.964;7.982;2023-07-08T13:49:55;96931.84;;;22.59;52.38
48390;BME280;34643;47.964;7.982;2023-07-08T13:55:00;96918.69;;;22.59;52.53
48390;BME280;34643;47.964;7.982;2023-07-08T14:00:03;96920.34;;;22.61;52.43
48390;BME280;34643;47.964;7.982;2023-07-08T14:05:12;96915.09;;;22.61;52.38
48390;BME280;34643;47.964;7.982;2023-07-08T14:10:14;96918.53;;;22.61;52.11
48390;BME280;34643;47.964;7.982;2023-07-08T14:15:14;96908.88;;;22.62;52.24
48390;BME280;34643;47.964;7.982;2023-07-08T14:20:15;96910.50;;;22.63;52.11
48390;BME280;34643;47.964;7.982;2023-07-08T14:25:16;96905.25;;;22.63;52.37
48390;BME280;34643;47.964;7.982;2023-07-08T14:30:17;96906.91;;;22.64;51.89
48390;BME280;34643;47.964;7.982;2023-07-08T14:35:22;96908.56;;;22.65;52.16
48390;BME280;34643;47.964;7.982;2023-07-08T14:40:26;96908.56;;;22.65;51.96
48390;BME280;34643;47.964;7.982;2023-07-08T14:45:27;96914.66;;;22.65;51.93
48390;BME280;34643;47.964;7.982;2023-07-08T14:50:28;96909.41;;;22.65;52.06
48390;BME280;34643;47.964;7.982;2023-07-08T14:55:29;96908.56;;;22.65;52.03
48390;BME280;34643;47.964;7.982;2023-07-08T15:00:30;96915.50;;;22.66;51.76
48390;BME280;34643;47.964;7.982;2023-07-08T15:05:30;96911.06;;;22.66;51.98
48390;BME280;34643;47.964;7.982;2023-07-08T15:10:31;96917.13;;;22.67;51.78
48390;BME280;34643;47.964;7.982;2023-07-08T15:15:33;96921.56;;;22.66;51.86
48390;BME280;34643;47.964;7.982;2023-07-08T15:20:36;96917.13;;;22.67;51.88
48390;BME280;34643;47.964;7.982;2023-07-08T15:25:36;96920.63;;;22.67;52.11
48390;BME280;34643;47.964;7.982;2023-07-08T15:30:37;96919.63;;;22.68;51.92
48390;BME280;34643;47.964;7.982;2023-07-08T15:35:37;96923.94;;;22.69;51.72
48390;BME280;34643;47.964;7.982;2023-07-08T15:40:37;96923.09;;;22.69;51.71
48390;BME280;34643;47.964;7.982;2023-07-08T15:45:38;96925.75;;;22.69;52.10
48390;BME280;34643;47.964;7.982;2023-07-08T15:50:40;96917.84;;;22.69;51.78
48390;BME280;34643;47.964;7.982;2023-07-08T15:55:41;96912.59;;;22.69;51.91
48390;BME280;34643;47.964;7.982;2023-07-08T16:00:42;96910.78;;;22.69;51.93
48390;BME280;34643;47.964;7.982;2023-07-08T16:05:43;96913.25;;;22.71;52.09
48390;BME280;34643;47.964;7.982;2023-07-08T16:10:44;96911.44;;;22.71;51.98
48390;BME280;34643;47.964;7.982;2023-07-08T16:15:47;96907.00;;;22.72;51.79
48390;BME280;34643;47.964;7.982;2023-07-08T16:20:48;96912.28;;;22.72;51.77
48390;BME280;34643;47.964;7.982;2023-07-08T16:25:49;96904.38;;;22.72;51.75
48390;BME280;34643;47.964;7.982;2023-07-08T16:30:50;96910.50;;;22.72;51.89
48390;BME280;34643;47.964;7.982;2023-07-08T16:35:50;96916.56;;;22.73;51.94
48390;BME280;34643;47.964;7.982;2023-07-08T16:40:51;96908.69;;;22.73;52.21
48390;BME280;34643;47.964;7.982;2023-07-08T16:45:51;96912.13;;;22.73;52.19
48390;BME280;34643;47.964;7.982;2023-07-08T16:50:51;96914.63;;;22.75;52.16
48390;BME280;34643;47.964;7.982;2023-07-08T16:55:52;96907.69;;;22.74;51.96
48390;BME280;34643;47.964;7.982;2023-07-08T17:00:52;96907.69;;;22.74;52.20
48390;BME280;34643;47.964;7.982;2023-07-08T17:05:52;96913.81;;;22.74;52.13
48390;BME280;34643;47.964;7.982;2023-07-08T17:10:52;96916.28;;;22.76;52.01
48390;BME280;34643;47.964;7.982;2023-07-08T17:15:53;96904.91;;;22.75;51.95
48390;BME280;34643;47.964;7.982;2023-07-08T17:20:54;96909.22;;;22.76;52.22
48390;BME280;34643;47.964;7.982;2023-07-08T17:25:54;96910.03;;;22.77;52.41
48390;BME280;34643;47.964;7.982;2023-07-08T17:30:55;96911.03;;;22.76;52.01
48390;BME280;34643;47.964;7.982;2023-07-08T17:35:55;96907.41;;;22.77;52.28
48390;BME280;34643;47.964;7.982;2023-07-08T17:40:56;96908.22;;;22.77;52.06
48390;BME280;34643;47.964;7.982;2023-07-08T17:45:56;96923.06;;;22.78;52.31
48390;BME280;34643;47.964;7.982;2023-07-08T17:50:57;96915.16;;;22.78;52.33
48390;BME280;34643;47.964;7.982;2023-07-08T17:55:57;96915.97;;;22.79;52.09
48390;BME280;34643;47.964;7.982;2023-07-08T18:00:58;96914.19;;;22.80;51.96
48390;BME280;34643;47.964;7.982;2023-07-08T18:05:58;96916.81;;;22.80;52.11
48390;BME280;34643;47.964;7.982;2023-07-08T18:10:59;96922.91;;;22.80;52.37
48390;BME280;34643;47.964;7.982;2023-07-08T18:15:59;96927.22;;;22.81;52.02
48390;BME280;34643;47.964;7.982;2023-07-08T18:20:59;96929.84;;;22.81;52.47
48390;BME280;34643;47.964;7.982;2023-07-08T18:26:00;96936.75;;;22.82;51.94
48390;BME280;34643;47.964;7.982;2023-07-08T18:31:00;96932.47;;;22.81;52.24
48390;BME280;34643;47.964;7.982;2023-07-08T18:36:00;96942.84;;;22.83;52.15
48390;BME280;34643;47.964;7.982;2023-07-08T18:41:03;96942.00;;;22.82;52.15
48390;BME280;34643;47.964;7.982;2023-07-08T18:46:04;96959.34;;;22.85;52.44
48390;BME280;34643;47.964;7.982;2023-07-08T18:51:13;96962.78;;;22.85;52.34
48390;BME280;34643;47.964;7.982;2023-07-08T18:56:14;96964.59;;;22.85;52.26
48390;BME280;34643;47.964;7.982;2023-07-08T19:01:16;96971.50;;;22.86;52.18
48390;BME280;34643;47.964;7.982;2023-07-08T19:06:17;96974.13;;;22.86;52.30
48390;BME280;34643;47.964;7.982;2023-07-08T19:11:18;96980.22;;;22.86;52.46
48390;BME280;34643;47.964;7.982;2023-07-08T19:16:19;96990.75;;;22.86;52.47
48390;BME280;34643;47.964;7.982;2023-07-08T19:21:21;96993.38;;;22.86;52.17
48390;BME280;34643;47.964;7.982;2023-07-08T19:26:24;96996.84;;;22.87;52.13
48390;BME280;34643;47.964;7.982;2023-07-08T19:31:31;96998.63;;;22.86;52.52
48390;BME280;34643;47.964;7.982;2023-07-08T19:36:33;97001.00;;;22.89;52.40
48390;BME280;34643;47.964;7.982;2023-07-08T19:41:34;97013.47;;;22.87;52.38
48390;BME280;34643;47.964;7.982;2023-07-08T19:46:36;97023.03;;;22.88;52.19
48390;BME280;34643;47.964;7.982;2023-07-08T19:51:37;97040.47;;;22.89;52.08
48390;BME280;34643;47.964;7.982;2023-07-08T19:56:37;97043.09;;;22.89;52.40
48390;BME280;34643;47.964;7.982;2023-07-08T20:01:38;97045.72;;;22.89;52.17
48390;BME280;34643;47.964;7.982;2023-07-08T20:06:38;97047.41;;;22.90;52.36
48390;BME280;34643;47.964;7.982;2023-07-08T20:11:39;97046.56;;;22.90;52.23
48390;BME280;34643;47.964;7.982;2023-07-08T20:16:40;97049.19;;;22.90;52.34
48390;BME280;34643;47.964;7.982;2023-07-08T20:21:43;97052.66;;;22.90;52.09
48390;BME280;34643;47.964;7.982;2023-07-08T20:26:43;97061.38;;;22.91;52.44
48390;BME280;34643;47.964;7.982;2023-07-08T20:31:44;97062.22;;;22.91;52.33
48390;BME280;34643;47.964;7.982;2023-07-08T20:36:45;97065.69;;;22.92;52.09
48390;BME280;34643;47.964;7.982;2023-07-08T20:41:46;97064.84;;;22.91;52.44
48390;BME280;34643;47.964;7.982;2023-07-08T20:46:46;97067.47;;;22.91;52.16
48390;BME280;34643;47.964;7.982;2023-07-08T20:51:49;97074.41;;;22.92;52.20
48390;BME280;34643;47.964;7.982;2023-07-08T20:56:50;97084.94;;;22.92;51.90
48390;BME280;34643;47.964;7.982;2023-07-08T21:01:53;97085.75;;;22.93;52.02
48390;BME280;34643;47.964;7.982;2023-07-08T21:06:54;97094.47;;;22.93;52.19
48390;BME280;34643;47.964;7.982;2023-07-08T21:11:55;97099.75;;;22.93;52.21
48390;BME280;34643;47.964;7.982;2023-07-08T21:16:55;97095.31;;;22.94;52.16
48390;BME280;34643;47.964;7.982;2023-07-08T21:21:55;97087.44;;;22.94;52.12
48390;BME280;34643;47.964;7.982;2023-07-08T21:26:55;97088.25;;;22.94;51.96
48390;BME280;34643;47.964;7.982;2023-07-08T21:31:56;97089.06;;;22.95;52.29
48390;BME280;34643;47.964;7.982;2023-07-08T21:36:56;97094.34;;;22.95;51.96
48390;BME280;34643;47.964;7.982;2023-07-08T21:41:57;97093.53;;;22.94;51.89
48390;BME280;34643;47.964;7.982;2023-07-08T21:46:58;97101.41;;;22.94;52.06
48390;BME280;34643;47.964;7.982;2023-07-08T21:51:58;97095.19;;;22.95;51.86
48390;BME280;34643;47.964;7.982;2023-07-08T21:56:58;97094.34;;;22.95;52.08
48390;BME280;34643;47.964;7.982;2023-07-08T22:01:58;97101.28;;;22.96;52.26
48390;BME280;34643;47.964;7.982;2023-07-08T22:06:59;97102.09;;;22.96;52.10
48390;BME280;34643;47.964;7.982;2023-07-08T22:12:01;97105.72;;;22.95;52.16
48390;BME280;34643;47.964;7.982;2023-07-08T22:17:01;97108.34;;;22.95;52.21
48390;BME280;34643;47.964;7.982;2023-07-08T22:22:02;97108.19;;;22.97;52.06
48390;BME280;34643;47.964;7.982;2023-07-08T22:27:03;97102.09;;;22.96;52.14
48390;BME280;34643;47.964;7.982;2023-07-08T22:32:03;97112.63;;;22.96;51.77
48390;BME280;34643;47.964;7.982;2023-07-08T22:37:04;97098.66;;;22.96;51.92
48390;BME280;34643;47.964;7.982;2023-07-08T22:42:07;97102.09;;;22.96;51.84
48390;BME280;34643;47.964;7.982;2023-07-08T22:47:09;97102.91;;;22.97;51.85
48390;BME280;34643;47.964;7.982;2023-07-08T22:52:20;97098.50;;;22.97;51.82
48390;BME280;34643;47.964;7.982;2023-07-08T22:57:23;97103.78;;;22.97;52.10
48390;BME280;34643;47.964;7.982;2023-07-08T23:02:23;97101.13;;;22.97;51.87
48390;BME280;34643;47.964;7.982;2023-07-08T23:07:24;97110.81;;;22.97;52.01
48390;BME280;34643;47.964;7.982;2023-07-08T23:12:24;97101.13;;;22.97;52.03
48390;BME280;34643;47.964;7.982;2023-07-08T23:17:24;97104.59;;;22.98;51.76
48390;BME280;34643;47.964;7.982;2023-07-08T23:22:24;97110.69;;;22.98;51.77
48390;BME280;34643;47.964;7.982;2023-07-08T23:27:25;97110.69;;;22.98;51.99
48390;BME280;34643;47.964;7.982;2023-07-08T23:32:25;97104.59;;;22.98;51.91
48390;BME280;34643;47.964;7.982;2023-07-08T23:37:26;97113.31;;;22.98;51.88
48390;BME280;34643;47.964;7.982;2023-07-08T23:42:30;97114.97;;;23.00;51.81
48390;BME280;34643;47.964;7.982;2023-07-08T23:47:30;97110.69;;;22.98;51.99
48390;BME280;34643;47.964;7.982;2023-07-08T23:52:31;97111.53;;;22.99;51.76
48390;BME280;34643;47.964;7.982;2023-07-08T23:57:31;97114.97;;;23.00;51.99
